Time;durP1;ratioP1;P1;durP2;ratioP2;P2;SDS_P1;SDS_P2;PMS_P1;PMS_P2;Temp;Humidity;BMP_temperature;BMP_pressure;BME280_temperature;BME280_humidity;BME280_pressure;Samples;Min_cycle;Max_cycle;Signal;HPM_P1;HPM_P2
2024/04/05 00:01:57;;;;;;;1.43;0.70;;;;;;;7.55;100.00;97758.31;6301168;28;20193;-52
2024/04/05 00:04:58;;;;;;;0.80;0.70;;;;;;;7.49;100.00;97767.97;6310200;28;20194;-52
2024/04/05 00:07:59;;;;;;;1.23;0.53;;;;;;;7.42;100.00;97769.84;6305105;28;20189;-52
2024/04/05 00:11:01;;;;;;;2.47;0.50;;;;;;;7.61;100.00;97783.94;6309124;28;20580;-52
2024/04/05 00:14:02;;;;;;;0.90;0.50;;;;;;;7.33;100.00;97764.03;6315881;28;20275;-53
2024/04/05 00:17:04;;;;;;;1.73;0.67;;;;;;;7.21;100.00;97763.94;6309408;28;20196;-53
2024/04/05 00:20:06;;;;;;;3.27;0.50;;;;;;;7.34;100.00;97778.06;6300384;28;20717;-53
2024/04/05 00:23:08;;;;;;;2.90;0.50;;;;;;;7.21;100.00;97771.06;6293759;28;20212;-51
2024/04/05 00:26:09;;;;;;;2.87;0.50;;;;;;;7.19;100.00;97784.56;6288165;28;20206;-53
2024/04/05 00:29:11;;;;;;;2.97;0.93;;;;;;;7.31;100.00;97779.34;6287523;28;20682;-53
2024/04/05 00:32:12;;;;;;;0.30;0.30;;;;;;;7.39;100.00;97792.31;6297462;28;20220;-54
2024/04/05 00:35:13;;;;;;;0.93;0.70;;;;;;;7.50;100.00;97790.78;6293677;28;20191;-54
2024/04/05 00:38:16;;;;;;;0.50;0.50;;;;;;;7.67;100.00;97791.00;6290250;28;20592;-54
2024/04/05 00:41:17;;;;;;;1.60;0.47;;;;;;;7.64;100.00;97796.78;6289924;28;20854;-53
2024/04/05 00:44:19;;;;;;;1.90;0.40;;;;;;;8.71;100.00;97778.50;6293249;28;20741;-53
2024/04/05 00:47:19;;;;;;;1.30;0.50;;;;;;;9.48;100.00;97792.56;6298824;28;20702;-52
2024/04/05 00:50:21;;;;;;;0.80;0.50;;;;;;;9.61;100.00;97791.53;6290454;28;20221;-54
2024/04/05 00:53:32;;;;;;;2.13;0.50;;;;;;;9.61;100.00;97809.34;6288790;28;20194;-51
2024/04/05 00:56:33;;;;;;;0.20;0.20;;;;;;;10.26;97.10;97806.47;6294313;28;20195;-52
2024/04/05 00:59:36;;;;;;;0.50;0.30;;;;;;;10.96;94.46;97818.69;6290392;28;20196;-49
2024/04/05 01:02:37;;;;;;;0.30;0.30;;;;;;;11.93;84.23;97818.31;6296003;28;20246;-53
2024/04/05 01:05:39;;;;;;;0.43;0.20;;;;;;;12.48;79.67;97808.56;6275902;28;20194;-54
2024/04/05 01:08:40;;;;;;;1.27;0.40;;;;;;;12.45;78.91;97804.53;6298517;28;20196;-52
2024/04/05 01:11:42;;;;;;;0.63;0.30;;;;;;;12.43;82.02;97813.88;6291397;28;20915;-53
2024/04/05 01:14:43;;;;;;;1.80;0.50;;;;;;;12.47;80.46;97807.78;6267627;28;20684;-52
2024/04/05 01:17:44;;;;;;;0.33;0.30;;;;;;;12.24;85.85;97818.72;6283060;28;20673;-53
2024/04/05 01:20:50;;;;;;;0.53;0.30;;;;;;;12.37;81.36;97808.47;6291534;28;20228;-52
2024/04/05 01:23:51;;;;;;;0.77;0.33;;;;;;;12.40;82.33;97796.44;6297932;28;20206;-52
2024/04/05 01:26:52;;;;;;;0.40;0.40;;;;;;;12.11;82.61;97777.16;6290828;28;20298;-54
2024/04/05 01:29:53;;;;;;;0.37;0.33;;;;;;;11.95;87.21;97800.19;6282927;28;20938;-54
2024/04/05 01:33:01;;;;;;;0.33;0.33;;;;;;;11.98;85.02;97794.38;6285943;28;20219;-52
2024/04/05 01:36:03;;;;;;;1.67;0.50;;;;;;;12.03;86.90;97802.44;6285573;28;20205;-53
2024/04/05 01:39:04;;;;;;;1.33;0.40;;;;;;;11.87;88.26;97797.94;6287095;28;20205;-52
2024/04/05 01:42:06;;;;;;;1.13;0.50;;;;;;;12.07;84.71;97790.22;6288188;28;20186;-52
2024/04/05 01:45:07;;;;;;;0.30;0.30;;;;;;;12.20;82.06;97804.22;6284682;28;20209;-53
2024/04/05 01:48:08;;;;;;;0.77;0.60;;;;;;;11.79;91.61;97811.69;6287861;28;20202;-53
2024/04/05 01:51:09;;;;;;;0.27;0.27;;;;;;;11.68;88.11;97812.63;6281817;28;20214;-52
2024/04/05 01:54:10;;;;;;;0.67;0.40;;;;;;;12.03;84.46;97813.13;6292112;28;20256;-53
2024/04/05 01:57:11;;;;;;;0.77;0.30;;;;;;;11.83;87.53;97805.66;6286862;28;20198;-53
2024/04/05 02:00:13;;;;;;;2.43;0.30;;;;;;;11.57;90.51;97814.31;6302169;28;20693;-53
2024/04/05 02:03:17;;;;;;;0.20;0.20;;;;;;;11.73;87.26;97826.03;6288945;28;20742;-52
2024/04/05 02:06:18;;;;;;;0.20;0.20;;;;;;;11.87;84.96;97830.81;6291116;28;20259;-52
2024/04/05 02:09:19;;;;;;;0.43;0.30;;;;;;;11.97;84.33;97838.16;6292959;28;20234;-52
2024/04/05 02:12:22;;;;;;;1.93;0.30;;;;;;;12.03;84.34;97837.16;6290529;28;20202;-52
2024/04/05 02:15:23;;;;;;;3.30;0.47;;;;;;;11.74;88.14;97838.31;6295532;28;20198;-52
2024/04/05 02:18:24;;;;;;;1.83;0.30;;;;;;;11.81;87.00;97849.63;6298933;28;20227;-53
2024/04/05 02:21:27;;;;;;;1.47;0.30;;;;;;;11.62;89.51;97847.22;6290914;28;20228;-52
2024/04/05 02:24:28;;;;;;;2.53;0.30;;;;;;;11.73;87.04;97850.06;6289063;28;20187;-53
2024/04/05 02:27:29;;;;;;;1.57;0.37;;;;;;;11.72;87.74;97845.75;6296688;28;20209;-53
2024/04/05 02:30:30;;;;;;;0.30;0.30;;;;;;;12.03;84.02;97845.16;6299129;28;20198;-53
2024/04/05 02:33:31;;;;;;;0.27;0.20;;;;;;;12.06;85.68;97841.19;6294186;28;20206;-54
2024/04/05 02:36:32;;;;;;;1.93;0.20;;;;;;;11.91;87.19;97835.63;6289703;28;20194;-54
2024/04/05 02:39:34;;;;;;;0.30;0.30;;;;;;;11.92;83.98;97822.06;6287145;28;20202;-52
2024/04/05 02:42:35;;;;;;;0.80;0.30;;;;;;;12.03;84.90;97849.69;6271930;28;20596;-55
2024/04/05 02:45:37;;;;;;;0.43;0.20;;;;;;;12.02;84.06;97850.72;6298904;28;20187;-54
2024/04/05 02:48:38;;;;;;;0.40;0.37;;;;;;;12.04;83.61;97851.31;6289531;28;20197;-51
2024/04/05 02:51:39;;;;;;;0.37;0.20;;;;;;;11.97;84.87;97859.50;6269102;28;20210;-53
2024/04/05 02:54:40;;;;;;;0.30;0.20;;;;;;;12.01;84.68;97854.47;6308774;28;20182;-54
2024/04/05 02:57:41;;;;;;;0.77;0.30;;;;;;;12.01;82.68;97855.25;6300227;28;20596;-52
2024/04/05 03:00:45;;;;;;;0.93;0.30;;;;;;;11.99;82.87;97836.03;6289125;28;20484;-51
2024/04/05 03:03:47;;;;;;;1.20;0.20;;;;;;;12.00;82.88;97859.00;6287460;28;20293;-51
2024/04/05 03:06:48;;;;;;;0.30;0.30;;;;;;;11.75;86.32;97863.94;6286605;28;20665;-52
2024/04/05 03:09:49;;;;;;;0.60;0.20;;;;;;;11.79;84.85;97865.06;6292241;28;20194;-54
2024/04/05 03:12:51;;;;;;;0.87;0.30;;;;;;;11.96;83.98;97865.06;6287726;28;20265;-52
2024/04/05 03:15:52;;;;;;;0.50;0.50;;;;;;;11.87;86.44;97873.53;6289123;28;20561;-52
2024/04/05 03:18:53;;;;;;;0.23;0.20;;;;;;;11.51;88.43;97856.13;6294760;28;20226;-53
2024/04/05 03:21:54;;;;;;;0.30;0.20;;;;;;;11.77;82.68;97856.50;6315029;28;20603;-52
2024/04/05 03:24:55;;;;;;;2.90;0.43;;;;;;;11.76;84.97;97868.22;6317902;28;20194;-53
2024/04/05 03:27:57;;;;;;;1.70;0.30;;;;;;;12.04;82.04;97856.66;6302444;28;20648;-54
2024/04/05 03:30:58;;;;;;;0.90;0.40;;;;;;;11.70;87.93;97872.69;6312486;28;20209;-53
2024/04/05 03:33:59;;;;;;;0.40;0.30;;;;;;;11.65;85.46;97869.13;6313048;28;20190;-53
2024/04/05 03:36:59;;;;;;;0.47;0.40;;;;;;;11.56;87.36;97876.72;6310255;28;20185;-53
2024/04/05 03:40:01;;;;;;;1.83;0.30;;;;;;;12.02;81.67;97877.44;6303986;28;20201;-53
2024/04/05 03:43:01;;;;;;;0.30;0.30;;;;;;;11.68;85.12;97860.66;6301823;28;20191;-53
2024/04/05 03:46:03;;;;;;;0.47;0.37;;;;;;;11.45;87.80;97874.97;6315450;28;20197;-54
2024/04/05 03:49:07;;;;;;;0.60;0.40;;;;;;;11.13;88.89;97856.81;6296614;28;20750;-55
2024/04/05 03:52:09;;;;;;;0.83;0.57;;;;;;;11.40;86.38;97877.53;6307007;28;20210;-51
2024/04/05 03:55:10;;;;;;;1.10;0.40;;;;;;;11.53;86.35;97887.91;6303409;28;20192;-55
2024/04/05 03:58:11;;;;;;;5.40;0.60;;;;;;;11.36;87.82;97891.34;6314959;28;20540;-54
2024/04/05 04:01:12;;;;;;;0.30;0.27;;;;;;;11.55;83.84;97896.47;6315956;28;20197;-53
2024/04/05 04:04:14;;;;;;;0.37;0.30;;;;;;;11.73;84.47;97900.75;6304322;28;20562;-55
2024/04/05 04:07:15;;;;;;;1.37;0.40;;;;;;;11.50;86.97;97905.19;6304158;28;20196;-53
2024/04/05 04:10:16;;;;;;;1.80;0.40;;;;;;;11.74;83.76;97897.84;6298171;28;20714;-54
2024/04/05 04:13:19;;;;;;;0.77;0.40;;;;;;;11.54;85.34;97908.19;6316715;28;20200;-54
2024/04/05 04:16:20;;;;;;;1.27;0.30;;;;;;;11.65;85.30;97903.81;6302578;28;20567;-53
2024/04/05 04:19:22;;;;;;;1.10;0.50;;;;;;;11.22;87.75;97902.56;6302141;28;20260;-54
2024/04/05 04:22:23;;;;;;;1.73;0.57;;;;;;;11.09;88.37;97893.84;6299874;28;20189;-55
2024/04/05 04:25:25;;;;;;;1.03;0.37;;;;;;;10.98;86.84;97861.88;6300327;28;20724;-51
2024/04/05 04:28:29;;;;;;;1.17;0.43;;;;;;;10.37;92.66;97896.16;6307282;28;20186;-52
2024/04/05 04:31:30;;;;;;;0.27;0.27;;;;;;;10.20;94.07;97900.59;6300072;28;20216;-53
2024/04/05 04:34:31;;;;;;;0.83;0.40;;;;;;;9.93;95.54;97902.91;6295698;28;20249;-53
2024/04/05 04:37:32;;;;;;;1.00;0.43;;;;;;;9.29;100.00;97905.38;6300110;28;20193;-53
2024/04/05 04:40:34;;;;;;;1.03;0.50;;;;;;;9.18;100.00;97914.94;6302339;28;20232;-54
2024/04/05 04:43:35;;;;;;;0.50;0.37;;;;;;;9.08;100.00;97914.69;6301457;28;20195;-53
2024/04/05 04:46:40;;;;;;;0.70;0.27;;;;;;;8.92;100.00;97910.00;6301394;28;20195;-53
2024/04/05 04:49:44;;;;;;;2.03;0.50;;;;;;;8.83;100.00;97901.53;6304115;28;20555;-53
2024/04/05 04:52:45;;;;;;;1.17;0.40;;;;;;;8.66;100.00;97919.13;6302056;28;20211;-51
2024/04/05 04:55:47;;;;;;;2.03;0.60;;;;;;;8.65;100.00;97920.97;6306104;28;20206;-54
2024/04/05 04:58:50;;;;;;;1.60;0.40;;;;;;;8.60;100.00;97904.09;6303670;28;20293;-53
2024/04/05 05:01:51;;;;;;;0.83;0.30;;;;;;;8.60;100.00;97912.84;6298515;28;20232;-52
2024/04/05 05:04:52;;;;;;;6.37;1.07;;;;;;;8.46;100.00;97914.03;6303980;28;20193;-54
2024/04/05 05:07:54;;;;;;;1.57;0.40;;;;;;;8.67;100.00;97918.06;6301755;28;20193;-53
2024/04/05 05:10:55;;;;;;;0.87;0.43;;;;;;;8.66;100.00;97919.13;6305627;28;20202;-53
2024/04/05 05:13:57;;;;;;;0.50;0.30;;;;;;;8.45;100.00;97915.09;6300557;28;20195;-54
2024/04/05 05:17:00;;;;;;;2.67;1.00;;;;;;;8.58;100.00;97924.75;6302234;28;20189;-54
2024/04/05 05:20:06;;;;;;;0.97;0.60;;;;;;;8.62;100.00;97925.91;6302254;28;20635;-54
2024/04/05 05:23:11;;;;;;;2.80;1.07;;;;;;;8.64;100.00;97921.19;6307177;28;20189;-54
2024/04/05 05:26:12;;;;;;;0.77;0.77;;;;;;;8.83;100.00;97928.09;6301836;28;20209;-55
2024/04/05 05:29:13;;;;;;;1.80;0.50;;;;;;;8.92;100.00;97928.59;6298904;28;20222;-54
2024/04/05 05:32:14;;;;;;;1.13;0.57;;;;;;;8.74;100.00;97927.59;6308543;28;20213;-53
2024/04/05 05:35:15;;;;;;;1.50;0.50;;;;;;;8.89;100.00;97937.81;6305281;28;20287;-55
2024/04/05 05:38:17;;;;;;;0.57;0.40;;;;;;;8.85;100.00;97926.03;6304993;28;20914;-54
2024/04/05 05:41:18;;;;;;;2.87;0.40;;;;;;;9.27;100.00;97926.06;6298392;28;20317;-53
2024/04/05 05:44:19;;;;;;;2.23;0.50;;;;;;;9.36;100.00;97932.69;6311977;28;20680;-53
2024/04/05 05:47:22;;;;;;;2.40;0.60;;;;;;;9.46;100.00;97924.16;6298094;28;20193;-55
2024/04/05 05:50:25;;;;;;;0.67;0.60;;;;;;;9.68;100.00;97919.09;6305845;28;20203;-53
2024/04/05 05:53:28;;;;;;;1.17;0.50;;;;;;;10.36;100.00;97929.19;6300472;28;20202;-53
2024/04/05 05:56:29;;;;;;;0.57;0.50;;;;;;;10.72;100.00;97938.69;6313537;28;20201;-54
2024/04/05 05:59:32;;;;;;;1.40;0.63;;;;;;;10.72;100.00;97940.56;6310696;28;20721;-54
2024/04/05 06:02:33;;;;;;;1.27;0.40;;;;;;;10.75;100.00;97956.91;6302118;28;20219;-55
2024/04/05 06:05:36;;;;;;;0.67;0.40;;;;;;;11.76;88.45;97950.97;6302242;28;20196;-53
2024/04/05 06:08:39;;;;;;;0.50;0.47;;;;;;;12.11;91.70;97945.38;6303436;28;20272;-54
2024/04/05 06:11:40;;;;;;;2.43;0.60;;;;;;;12.31;91.96;97953.69;6298043;28;20209;-56
2024/04/05 06:14:42;;;;;;;2.30;0.70;;;;;;;12.43;94.48;97947.44;6307232;28;20532;-56
2024/04/05 06:17:47;;;;;;;1.33;0.40;;;;;;;12.45;93.22;97942.66;6298396;28;20197;-54
2024/04/05 06:20:55;;;;;;;0.67;0.40;;;;;;;12.46;95.32;97944.25;6290031;28;20238;-53
2024/04/05 06:23:59;;;;;;;0.37;0.37;;;;;;;12.53;97.80;97956.41;6289647;28;20187;-53
2024/04/05 06:27:02;;;;;;;0.90;0.57;;;;;;;12.56;94.39;97939.88;6265604;28;20666;-55
2024/04/05 06:30:07;;;;;;;2.73;0.70;;;;;;;12.77;93.32;97940.13;6287545;28;20206;-54
2024/04/05 06:33:10;;;;;;;2.33;0.60;;;;;;;13.15;83.70;97942.72;6272871;28;20203;-55
2024/04/05 06:36:12;;;;;;;2.13;0.40;;;;;;;13.33;86.41;97954.94;6290438;28;20666;-54
2024/04/05 06:39:13;;;;;;;0.60;0.60;;;;;;;13.45;87.73;97946.78;6294141;28;20190;-54
2024/04/05 06:42:14;;;;;;;4.27;0.53;;;;;;;13.61;82.03;97948.53;6293466;28;20200;-52
2024/04/05 06:45:17;;;;;;;1.63;0.70;;;;;;;13.86;84.44;97953.28;6293041;28;20679;-53
2024/04/05 06:48:18;;;;;;;2.10;0.50;;;;;;;13.99;77.99;97948.53;6290866;28;21172;-53
2024/04/05 06:51:24;;;;;;;2.33;0.50;;;;;;;14.09;83.35;97952.13;6302885;28;20240;-55
2024/04/05 06:54:25;;;;;;;0.60;0.33;;;;;;;14.26;75.04;97951.16;6292044;28;20674;-55
2024/04/05 06:57:27;;;;;;;1.30;0.43;;;;;;;14.28;80.19;97959.72;6292929;28;20687;-53
2024/04/05 07:00:29;;;;;;;2.10;0.50;;;;;;;14.35;78.21;97965.69;6292196;28;20229;-54
2024/04/05 07:03:31;;;;;;;0.37;0.33;;;;;;;14.53;86.89;97965.28;6292410;28;20201;-54
2024/04/05 07:06:32;;;;;;;1.20;0.63;;;;;;;14.62;70.77;97962.91;6294436;28;20201;-54
2024/04/05 07:09:35;;;;;;;1.03;0.40;;;;;;;14.58;69.62;97951.91;6282951;28;20595;-54
2024/04/05 07:12:41;;;;;;;2.03;0.40;;;;;;;14.60;69.04;97963.16;6281216;28;20221;-55
2024/04/05 07:15:42;;;;;;;1.30;0.33;;;;;;;14.62;69.48;97960.22;6283879;28;20268;-54
2024/04/05 07:18:44;;;;;;;1.10;0.47;;;;;;;14.50;75.05;97963.13;6294576;28;20222;-54
2024/04/05 07:21:50;;;;;;;1.97;0.40;;;;;;;14.65;65.69;97959.69;6307063;28;20584;-54
2024/04/05 07:24:53;;;;;;;0.33;0.30;;;;;;;14.80;64.69;97948.25;6283680;28;20198;-53
2024/04/05 07:27:55;;;;;;;0.87;0.30;;;;;;;15.19;65.88;97959.38;6314413;28;20190;-54
2024/04/05 07:31:01;;;;;;;1.60;0.60;;;;;;;15.52;63.14;97954.56;6301466;28;20308;-54
2024/04/05 07:34:05;;;;;;;0.37;0.27;;;;;;;15.78;65.41;97955.47;6321252;28;20690;-56
2024/04/05 07:37:09;;;;;;;2.53;0.37;;;;;;;15.95;59.82;97974.78;6302947;28;20182;-56
2024/04/05 07:40:10;;;;;;;1.27;0.77;;;;;;;16.05;57.70;97969.41;6292435;28;20727;-52
2024/04/05 07:43:11;;;;;;;0.80;0.40;;;;;;;16.08;61.26;97979.63;6317795;28;20205;-55
2024/04/05 07:46:12;;;;;;;1.13;0.50;;;;;;;16.20;57.06;97961.31;6312806;28;20553;-55
2024/04/05 07:49:14;;;;;;;1.00;0.40;;;;;;;16.02;62.01;97969.97;6301672;28;20190;-53
2024/04/05 07:52:15;;;;;;;0.60;0.40;;;;;;;16.03;64.70;97976.94;6296211;28;20914;-55
2024/04/05 07:55:16;;;;;;;1.60;0.40;;;;;;;16.30;55.97;97976.63;6301516;28;20918;-55
2024/04/05 07:58:19;;;;;;;0.87;0.40;;;;;;;16.27;60.58;97973.69;6300860;28;20971;-53
2024/04/05 08:01:20;;;;;;;0.87;0.40;;;;;;;16.37;61.10;97969.09;6305027;28;20190;-54
2024/04/05 08:04:21;;;;;;;1.03;0.50;;;;;;;16.38;57.86;97959.97;6309635;28;20201;-55
2024/04/05 08:07:25;;;;;;;1.90;0.40;;;;;;;16.35;63.18;97951.63;6290732;28;20221;-54
2024/04/05 08:10:27;;;;;;;2.03;0.57;;;;;;;16.43;55.47;97975.28;6303632;28;20193;-54
2024/04/05 08:13:29;;;;;;;0.50;0.30;;;;;;;16.47;56.68;97969.09;6304941;28;20269;-54
2024/04/05 08:16:30;;;;;;;0.97;0.40;;;;;;;16.44;58.32;97968.81;6301826;28;20228;-55
2024/04/05 08:19:31;;;;;;;0.40;0.40;;;;;;;16.55;55.54;97954.28;6286873;28;20252;-54
2024/04/05 08:22:32;;;;;;;0.77;0.30;;;;;;;16.47;56.13;97963.72;6299947;28;20186;-54
2024/04/05 08:25:34;;;;;;;0.20;0.20;;;;;;;16.53;58.08;97977.94;6291324;28;20654;-53
2024/04/05 08:28:35;;;;;;;0.40;0.30;;;;;;;16.49;55.55;97974.19;6291123;28;20212;-53
2024/04/05 08:31:36;;;;;;;1.43;0.50;;;;;;;16.36;58.37;97972.06;6291005;28;20206;-55
2024/04/05 08:34:37;;;;;;;1.00;0.50;;;;;;;16.48;54.09;97969.88;6299280;28;20224;-53
2024/04/05 08:37:40;;;;;;;1.23;0.30;;;;;;;16.77;53.29;97965.53;6294536;28;20212;-53
2024/04/05 08:40:41;;;;;;;0.67;0.30;;;;;;;16.76;54.28;97966.63;6284907;28;20225;-52
2024/04/05 08:43:43;;;;;;;0.53;0.30;;;;;;;16.65;58.46;97969.56;6293593;28;20187;-54
2024/04/05 08:46:44;;;;;;;1.13;0.50;;;;;;;16.61;61.92;97960.44;6283772;28;20641;-51
2024/04/05 08:49:51;;;;;;;1.83;0.40;;;;;;;16.43;58.55;97957.25;6283863;28;20209;-53
2024/04/05 08:52:53;;;;;;;0.73;0.20;;;;;;;16.52;61.14;97954.81;6258715;28;20219;-53
2024/04/05 08:55:58;;;;;;;0.47;0.20;;;;;;;16.56;57.26;97961.28;6290267;28;20202;-53
2024/04/05 08:59:04;;;;;;;1.60;0.40;;;;;;;16.70;61.55;97962.31;6286022;28;20680;-55
2024/04/05 09:02:10;;;;;;;0.47;0.37;;;;;;;16.74;63.94;97968.75;6295255;28;20277;-54
2024/04/05 09:05:13;;;;;;;1.67;0.60;;;;;;;16.71;61.86;97968.50;6296037;28;20198;-54
2024/04/05 09:08:14;;;;;;;1.20;0.47;;;;;;;16.83;57.63;97979.75;6294204;28;20198;-52
2024/04/05 09:11:20;;;;;;;0.70;0.50;;;;;;;16.89;56.73;97983.22;6287685;28;20268;-54
2024/04/05 09:14:21;;;;;;;0.70;0.40;;;;;;;16.96;57.93;97975.69;6271900;28;20240;-53
2024/04/05 09:17:25;;;;;;;1.33;0.30;;;;;;;17.03;58.19;97960.03;6294459;28;20663;-54
2024/04/05 09:20:30;;;;;;;0.30;0.30;;;;;;;17.38;54.00;97971.69;6295356;28;20942;-54
2024/04/05 09:23:31;;;;;;;0.77;0.40;;;;;;;17.50;59.34;97972.19;6290996;28;20206;-50
2024/04/05 09:26:32;;;;;;;3.60;0.70;;;;;;;17.58;59.40;97973.44;6295801;28;20250;-53
2024/04/05 09:29:33;;;;;;;1.47;0.47;;;;;;;17.67;58.64;97972.56;6289519;28;20197;-53
2024/04/05 09:32:36;;;;;;;1.40;0.60;;;;;;;17.80;55.61;97979.28;6293562;28;20309;-53
2024/04/05 09:35:38;;;;;;;1.30;0.50;;;;;;;17.84;54.24;97980.31;6293927;28;20209;-53
2024/04/05 09:38:41;;;;;;;0.97;0.50;;;;;;;17.78;56.10;97986.81;6290913;28;20709;-54
2024/04/05 09:41:42;;;;;;;0.40;0.30;;;;;;;17.83;55.20;97988.66;6288222;28;20545;-52
2024/04/05 09:44:45;;;;;;;1.60;0.40;;;;;;;17.79;55.92;97989.25;6288543;28;20237;-55
2024/04/05 09:47:48;;;;;;;1.07;0.47;;;;;;;17.83;57.31;97994.06;6286272;28;20674;-51
2024/04/05 09:50:51;;;;;;;1.70;0.67;;;;;;;17.87;57.87;97990.53;6283746;28;20214;-52
2024/04/05 09:53:54;;;;;;;2.20;0.60;;;;;;;17.68;56.48;97971.50;6294286;28;20731;-52
2024/04/05 09:56:55;;;;;;;2.10;0.63;;;;;;;17.74;56.25;97980.41;6296447;28;20186;-52
2024/04/05 09:59:58;;;;;;;1.90;0.50;;;;;;;17.81;58.83;97978.19;6291573;28;20187;-52
2024/04/05 10:03:00;;;;;;;0.40;0.40;;;;;;;17.95;59.08;97981.84;6285995;28;20179;-53
2024/04/05 10:06:38;;;;;;;1.87;0.47;;;;;;;17.95;57.53;97986.44;6294910;28;20288;-50
2024/04/05 10:09:40;;;;;;;0.80;0.63;;;;;;;17.97;57.92;97973.47;6305793;28;20187;-52
2024/04/05 10:12:42;;;;;;;1.67;0.60;;;;;;;17.93;58.80;97977.81;6289174;28;20206;-53
2024/04/05 10:15:56;;;;;;;1.37;0.60;;;;;;;18.00;57.77;97972.91;6289150;28;20193;-53
2024/04/05 10:18:57;;;;;;;0.80;0.47;;;;;;;18.09;55.40;97963.13;6309900;28;21041;-52
2024/04/05 10:22:09;;;;;;;0.47;0.30;;;;;;;18.42;52.83;97969.56;6306080;28;20189;-52
2024/04/05 10:25:10;;;;;;;1.50;0.53;;;;;;;18.38;53.16;97967.72;6301917;28;20186;-53
2024/04/05 10:28:12;;;;;;;1.80;0.47;;;;;;;18.77;53.58;97962.19;6302944;28;20197;-50
2024/04/05 10:31:13;;;;;;;1.63;0.50;;;;;;;18.78;49.73;97956.50;6302056;28;20202;-53
2024/04/05 10:34:23;;;;;;;0.97;0.43;;;;;;;18.79;52.79;97935.72;6303223;28;20217;-53
2024/04/05 10:37:25;;;;;;;1.33;0.40;;;;;;;19.08;49.20;97939.13;6308055;28;20812;-51
2024/04/05 10:40:26;;;;;;;3.13;0.50;;;;;;;19.18;50.25;97932.78;6304471;28;20198;-54
2024/04/05 10:43:28;;;;;;;0.50;0.47;;;;;;;19.26;49.22;97931.31;6302328;28;20181;-52
2024/04/05 10:46:44;;;;;;;1.47;0.50;;;;;;;19.24;47.84;97942.41;6315925;28;20247;-53
2024/04/05 10:49:45;;;;;;;2.73;0.50;;;;;;;19.27;50.40;97941.84;6306454;28;20190;-51
2024/04/05 10:52:52;;;;;;;1.17;0.50;;;;;;;19.47;51.69;97937.22;6307846;28;20209;-52
2024/04/05 10:55:53;;;;;;;2.80;0.60;;;;;;;19.72;49.35;97936.88;6316314;28;20200;-52
2024/04/05 10:58:54;;;;;;;1.60;0.50;;;;;;;19.73;50.92;97926.84;6312023;28;20193;-52
2024/04/05 11:01:55;;;;;;;0.57;0.40;;;;;;;19.63;49.68;97937.84;6304324;28;20411;-53
2024/04/05 11:05:10;;;;;;;0.83;0.50;;;;;;;19.68;51.90;97914.22;6303267;28;20190;-54
2024/04/05 11:08:16;;;;;;;3.03;0.70;;;;;;;19.61;51.61;97932.72;6304051;28;20727;-54
2024/04/05 11:11:19;;;;;;;3.20;0.77;;;;;;;19.54;52.21;97930.34;6320998;28;20197;-53
2024/04/05 11:14:21;;;;;;;2.73;0.70;;;;;;;19.61;49.90;97932.72;6288568;28;20194;-52
2024/04/05 11:17:25;;;;;;;2.37;0.57;;;;;;;19.44;51.76;97927.81;6310728;28;20628;-53
2024/04/05 11:20:29;;;;;;;1.23;0.40;;;;;;;19.52;53.05;97945.25;6296573;28;20226;-50
2024/04/05 11:23:30;;;;;;;1.20;0.50;;;;;;;19.76;48.90;97942.50;6294778;28;20195;-54
2024/04/05 11:26:32;;;;;;;1.37;0.50;;;;;;;19.61;51.17;97935.44;6296521;28;20205;-52
2024/04/05 11:29:32;;;;;;;0.40;0.40;;;;;;;19.49;51.80;97943.13;6296502;28;20199;-52
2024/04/05 11:32:33;;;;;;;2.73;0.77;;;;;;;19.43;49.65;97936.22;6294079;28;20205;-54
2024/04/05 11:35:35;;;;;;;0.53;0.47;;;;;;;19.32;50.09;97939.06;6298846;28;20883;-51
2024/04/05 11:38:36;;;;;;;1.13;0.60;;;;;;;19.42;50.48;97932.72;6310357;28;20733;-53
2024/04/05 11:41:37;;;;;;;0.90;0.50;;;;;;;19.44;49.29;97943.22;6290882;28;20662;-54
2024/04/05 11:44:40;;;;;;;3.30;0.60;;;;;;;19.49;50.07;97935.03;6290513;28;20243;-53
2024/04/05 11:47:43;;;;;;;2.73;0.50;;;;;;;19.48;49.76;97928.81;6266370;28;20926;-53
2024/04/05 11:50:44;;;;;;;2.67;0.60;;;;;;;19.57;48.59;97926.28;6286081;28;20651;-54
2024/04/05 11:53:45;;;;;;;0.47;0.40;;;;;;;19.45;50.03;97932.09;6284963;28;20213;-53
2024/04/05 11:56:46;;;;;;;1.13;0.40;;;;;;;19.50;48.37;97936.63;6288932;28;20191;-53
2024/04/05 11:59:48;;;;;;;1.30;0.60;;;;;;;19.40;48.71;97924.06;6285801;28;20186;-54
2024/04/05 12:02:49;;;;;;;2.00;0.63;;;;;;;19.42;48.78;97916.50;6286438;28;20190;-53
2024/04/05 12:05:51;;;;;;;0.80;0.40;;;;;;;19.48;48.90;97901.81;6285613;28;20657;-52
2024/04/05 12:08:53;;;;;;;0.80;0.50;;;;;;;19.61;50.45;97884.09;6285735;28;20191;-54
2024/04/05 12:11:55;;;;;;;2.20;0.50;;;;;;;19.84;50.68;97885.81;6271948;28;20741;-52
2024/04/05 12:15:00;;;;;;;0.83;0.50;;;;;;;19.63;50.13;97883.78;6287190;28;20187;-49
2024/04/05 12:18:01;;;;;;;0.80;0.50;;;;;;;19.52;50.23;97883.91;6286992;28;20207;-52
2024/04/05 12:21:03;;;;;;;0.90;0.50;;;;;;;19.70;50.52;97884.97;6294312;28;20658;-53
2024/04/05 12:24:05;;;;;;;0.57;0.43;;;;;;;19.89;49.82;97881.44;6297300;28;20190;-51
2024/04/05 12:27:06;;;;;;;1.10;0.57;;;;;;;19.97;49.10;97878.06;6272410;28;20213;-53
2024/04/05 12:30:10;;;;;;;1.57;0.40;;;;;;;20.07;50.98;97869.75;6287375;28;20201;-53
2024/04/05 12:33:12;;;;;;;2.60;0.37;;;;;;;20.24;46.52;97877.28;6276165;28;20297;-53
2024/04/05 12:36:14;;;;;;;0.67;0.50;;;;;;;20.24;47.27;97864.53;6296495;28;20205;-54
2024/04/05 12:39:30;;;;;;;1.60;0.60;;;;;;;20.30;46.13;97874.19;6291633;28;20203;-52
2024/04/05 12:42:31;;;;;;;1.93;0.60;;;;;;;20.42;46.15;97864.75;6290219;28;20191;-51
2024/04/05 12:45:33;;;;;;;1.37;0.50;;;;;;;20.50;47.72;97864.09;6288668;28;20193;-54
2024/04/05 12:48:34;;;;;;;1.97;0.50;;;;;;;20.38;46.55;97844.81;6290243;28;20193;-53
2024/04/05 12:51:36;;;;;;;2.37;0.47;;;;;;;20.58;49.36;97855.25;6287371;28;20202;-50
2024/04/05 12:54:37;;;;;;;1.20;0.60;;;;;;;20.95;45.24;97854.19;6288190;28;20197;-52
2024/04/05 12:57:38;;;;;;;2.40;0.57;;;;;;;20.95;45.19;97854.19;6289065;28;20562;-52
2024/04/05 13:00:40;;;;;;;1.43;0.63;;;;;;;20.92;43.35;97837.75;6300311;28;20198;-53
2024/04/05 13:03:41;;;;;;;0.60;0.40;;;;;;;20.79;44.20;97834.78;6282556;28;20191;-52
2024/04/05 13:06:44;;;;;;;0.87;0.40;;;;;;;20.71;43.64;97846.31;6279295;28;20229;-52
2024/04/05 13:09:45;;;;;;;0.80;0.53;;;;;;;20.50;43.94;97827.00;6278521;28;20198;-52
2024/04/05 13:12:46;;;;;;;1.23;0.50;;;;;;;20.66;43.11;97846.44;6287421;28;20912;-52
2024/04/05 13:15:48;;;;;;;0.83;0.47;;;;;;;20.72;45.11;97831.69;6280508;28;20190;-52
2024/04/05 13:18:52;;;;;;;0.80;0.57;;;;;;;20.84;46.57;97839.28;6287561;28;20217;-49
2024/04/05 13:21:52;;;;;;;2.83;0.40;;;;;;;20.88;47.10;97829.44;6292074;28;20198;-52
2024/04/05 13:24:53;;;;;;;0.70;0.40;;;;;;;20.94;47.07;97832.84;6292779;28;20185;-49
2024/04/05 13:27:54;;;;;;;1.57;0.60;;;;;;;20.71;47.48;97821.97;6298642;28;20672;-52
2024/04/05 13:30:59;;;;;;;1.90;0.50;;;;;;;20.60;49.34;97809.75;6299796;28;20196;-52
2024/04/05 13:34:06;;;;;;;0.60;0.40;;;;;;;20.49;52.17;97808.34;6290150;28;20197;-52
2024/04/05 13:37:07;;;;;;;1.03;0.60;;;;;;;20.39;52.29;97805.81;6292848;28;20186;-52
2024/04/05 13:40:10;;;;;;;1.53;0.60;;;;;;;20.19;54.77;97805.13;6299595;28;20190;-53
2024/04/05 13:43:16;;;;;;;1.80;0.77;;;;;;;20.04;50.28;97794.63;6291699;28;20226;-52
2024/04/05 13:46:21;;;;;;;0.97;0.53;;;;;;;20.05;50.09;97796.25;6287053;28;20196;-52
2024/04/05 13:49:30;;;;;;;0.87;0.43;;;;;;;20.23;48.94;97794.53;6302384;28;20269;-51
2024/04/05 13:52:36;;;;;;;1.17;0.60;;;;;;;20.39;48.80;97803.13;6306096;28;20552;-52
2024/04/05 13:55:39;;;;;;;1.27;0.50;;;;;;;20.23;48.86;97795.31;6293744;28;20729;-53
2024/04/05 13:58:40;;;;;;;0.47;0.43;;;;;;;20.28;48.45;97795.22;6300151;28;20201;-54
2024/04/05 14:01:42;;;;;;;1.20;0.70;;;;;;;20.27;49.27;97779.28;6303876;28;20197;-54
2024/04/05 14:04:44;;;;;;;1.83;0.70;;;;;;;20.43;49.57;97779.75;6310406;28;20205;-55
2024/04/05 14:07:45;;;;;;;1.00;0.50;;;;;;;20.36;50.04;97783.69;6305634;28;20194;-53
2024/04/05 14:10:46;;;;;;;1.03;0.60;;;;;;;20.26;50.26;97750.66;6300919;28;20254;-53
2024/04/05 14:13:48;;;;;;;2.50;0.70;;;;;;;20.35;46.92;97768.56;6298060;28;20279;-53
2024/04/05 14:16:50;;;;;;;2.23;0.83;;;;;;;20.37;47.60;97765.56;6298261;28;20213;-55
2024/04/05 14:19:51;;;;;;;1.33;0.63;;;;;;;20.24;49.63;97767.16;6305793;28;20290;-53